Time;durP1;ratioP1;P1;durP2;ratioP2;P2;SDS_P1;SDS_P2;PMS_P1;PMS_P2;Temp;Humidity;BMP_temperature;BMP_pressure;BME280_temperature;BME280_humidity;BME280_pressure;Samples;Min_cycle;Max_cycle;Signal;HPM_P1;HPM_P2
2022/12/22 03:26:54;;;;;;;20.02;11.25;;;7.10;78.90;;;;;;5045215;28;20048;-65
2022/12/22 03:29:20;;;;;;;17.10;11.40;;;7.10;78.80;;;;;;5042675;28;20033;-65
2022/12/22 03:31:45;;;;;;;15.60;11.57;;;7.10;78.90;;;;;;5047747;28;20036;-65
2022/12/22 03:34:11;;;;;;;13.48;10.70;;;7.10;78.90;;;;;;5038691;28;20037;-65
2022/12/22 03:36:37;;;;;;;16.58;10.40;;;7.10;79.00;;;;;;5043318;28;20025;-65
2022/12/22 03:39:04;;;;;;;12.75;9.52;;;7.10;79.20;;;;;;5033107;28;20037;-65
2022/12/22 03:46:58;;;;;;;12.75;9.70;;;7.20;79.30;;;;;;5041676;28;20190;-64
2022/12/22 03:49:25;;;;;;;11.27;9.27;;;7.20;79.10;;;;;;5043317;28;20061;-65
2022/12/22 03:51:51;;;;;;;12.35;9.45;;;7.20;79.10;;;;;;5045132;28;20045;-65
2022/12/22 03:54:20;;;;;;;11.95;9.50;;;7.20;79.10;;;;;;5048517;28;20030;-65
2022/12/22 03:56:47;;;;;;;15.80;10.57;;;7.20;79.10;;;;;;5045998;28;20092;-64
2022/12/22 03:59:13;;;;;;;13.15;9.63;;;7.20;79.20;;;;;;5041854;28;20026;-65
2022/12/22 04:01:45;;;;;;;14.05;10.05;;;7.20;79.30;;;;;;5040420;28;20035;-65
2022/12/22 04:04:12;;;;;;;11.85;8.90;;;7.20;79.20;;;;;;5046550;28;20039;-65
2022/12/22 04:06:38;;;;;;;12.10;8.63;;;7.20;79.20;;;;;;5045753;28;20037;-65
2022/12/22 04:09:04;;;;;;;11.00;8.85;;;7.20;79.30;;;;;;5041583;28;20079;-65
2022/12/22 04:14:14;;;;;;;11.23;9.25;;;7.20;79.40;;;;;;5046369;28;20120;-65
2022/12/22 04:16:39;;;;;;;14.10;9.45;;;7.20;79.30;;;;;;5033085;28;20033;-65
2022/12/22 04:19:08;;;;;;;11.65;9.02;;;7.20;79.40;;;;;;5048164;28;20085;-65
2022/12/22 04:21:35;;;;;;;12.90;9.30;;;7.30;79.50;;;;;;5050199;28;20032;-65
2022/12/22 04:24:01;;;;;;;11.30;8.65;;;7.20;79.20;;;;;;5051376;28;20076;-65
2022/12/22 04:26:27;;;;;;;12.60;9.27;;;7.30;79.10;;;;;;5045967;28;20038;-65
2022/12/22 04:28:53;;;;;;;12.65;9.02;;;7.20;79.10;;;;;;5040408;28;20026;-65
2022/12/22 04:31:22;;;;;;;12.18;9.73;;;7.20;79.10;;;;;;5050894;28;20029;-65
2022/12/22 04:33:48;;;;;;;11.88;8.85;;;7.20;79.10;;;;;;5044485;28;20036;-65
2022/12/22 04:36:14;;;;;;;11.93;8.93;;;7.20;79.10;;;;;;5049934;28;20029;-65
2022/12/22 04:38:41;;;;;;;13.23;9.57;;;7.20;79.30;;;;;;5044963;28;20037;-65
2022/12/22 04:41:07;;;;;;;11.48;8.95;;;7.20;79.60;;;;;;5043265;28;20045;-65
2022/12/22 04:43:34;;;;;;;12.05;8.85;;;7.20;80.10;;;;;;5050182;28;20029;-65
2022/12/22 04:45:59;;;;;;;13.55;9.23;;;7.30;80.40;;;;;;5050497;28;20029;-66
2022/12/22 04:48:26;;;;;;;15.93;9.77;;;7.30;80.40;;;;;;5041627;28;20037;-65
2022/12/22 04:50:54;;;;;;;14.73;9.70;;;7.40;80.80;;;;;;5055720;28;20057;-65
2022/12/22 04:53:21;;;;;;;13.20;9.35;;;7.40;81.00;;;;;;5036637;28;20030;-65
2022/12/22 04:55:53;;;;;;;12.90;9.52;;;7.50;81.00;;;;;;5042459;28;20064;-65
2022/12/22 04:58:18;;;;;;;13.25;9.82;;;7.60;81.30;;;;;;5043944;28;20068;-65
2022/12/22 05:00:44;;;;;;;13.68;9.77;;;7.60;81.20;;;;;;5047779;28;20040;-65
2022/12/22 05:03:10;;;;;;;13.57;9.07;;;7.70;81.30;;;;;;5037232;28;20018;-65
2022/12/22 05:05:36;;;;;;;15.65;8.50;;;7.80;81.30;;;;;;5051069;28;20021;-65
2022/12/22 05:08:02;;;;;;;12.98;8.63;;;7.80;81.40;;;;;;5042654;28;20021;-65
2022/12/22 05:10:29;;;;;;;12.25;8.15;;;7.90;81.70;;;;;;5046146;28;20076;-65
2022/12/22 05:12:55;;;;;;;9.05;6.60;;;7.90;82.00;;;;;;5051446;28;20063;-65
2022/12/22 05:15:22;;;;;;;9.20;7.20;;;8.00;82.10;;;;;;5037885;28;20025;-65
2022/12/22 05:17:48;;;;;;;10.70;7.13;;;8.10;82.20;;;;;;5043085;28;20041;-65
2022/12/22 05:20:14;;;;;;;11.65;7.78;;;8.20;82.50;;;;;;5043697;28;20083;-65
2022/12/22 05:22:39;;;;;;;9.18;7.10;;;8.30;82.20;;;;;;5045707;28;20024;-66
2022/12/22 05:25:06;;;;;;;9.07;6.50;;;8.40;82.50;;;;;;5039729;28;20026;-65
2022/12/22 05:27:31;;;;;;;12.63;6.70;;;8.50;82.30;;;;;;5044315;28;20022;-65
2022/12/22 05:29:57;;;;;;;8.75;5.65;;;8.60;82.20;;;;;;5047302;28;20117;-65
2022/12/22 05:32:22;;;;;;;12.10;7.45;;;8.70;82.10;;;;;;5044194;28;20064;-66
2022/12/22 05:34:48;;;;;;;8.40;6.13;;;8.80;81.80;;;;;;5043379;28;20026;-66
2022/12/22 05:37:14;;;;;;;5.32;4.65;;;8.90;81.70;;;;;;5053679;28;20025;-66
2022/12/22 05:39:39;;;;;;;5.65;4.53;;;8.90;81.70;;;;;;5039770;28;20018;-65
2022/12/22 05:42:05;;;;;;;9.48;4.47;;;9.00;81.50;;;;;;5045648;28;20064;-66
2022/12/22 05:44:31;;;;;;;8.75;4.03;;;9.00;81.40;;;;;;5047070;28;20026;-66
2022/12/22 05:46:56;;;;;;;8.13;4.25;;;9.10;81.70;;;;;;5050637;28;20029;-65
2022/12/22 05:49:22;;;;;;;4.65;3.50;;;9.20;81.50;;;;;;5049087;28;20033;-66
2022/12/22 05:51:48;;;;;;;6.30;3.35;;;9.20;81.20;;;;;;5047429;28;20040;-65
2022/12/22 05:54:14;;;;;;;4.78;3.38;;;9.20;81.10;;;;;;5043919;28;20029;-66
2022/12/22 05:56:40;;;;;;;5.60;3.40;;;9.30;81.20;;;;;;5056729;28;20049;-66
2022/12/22 05:59:05;;;;;;;4.88;3.42;;;9.40;81.30;;;;;;5055747;28;20086;-65
2022/12/22 06:01:31;;;;;;;5.95;3.28;;;9.40;81.30;;;;;;5038909;28;20068;-65
2022/12/22 06:03:57;;;;;;;4.78;3.42;;;9.40;81.20;;;;;;5052734;28;20060;-65
2022/12/22 06:06:22;;;;;;;5.03;3.33;;;9.50;81.70;;;;;;5050639;28;20096;-66
2022/12/22 06:08:48;;;;;;;5.10;2.33;;;9.50;81.10;;;;;;5044606;28;20040;-66
2022/12/22 06:11:17;;;;;;;4.03;2.10;;;9.50;81.00;;;;;;5053860;28;20038;-66
2022/12/22 06:13:44;;;;;;;2.92;1.90;;;9.60;80.80;;;;;;5056278;28;20060;-66
2022/12/22 06:16:10;;;;;;;2.53;2.13;;;9.60;80.70;;;;;;5040227;28;20036;-65
2022/12/22 06:18:35;;;;;;;3.22;2.13;;;9.70;80.60;;;;;;5049116;28;20037;-65
2022/12/22 06:21:01;;;;;;;1.70;1.60;;;9.70;80.50;;;;;;5048721;28;20028;-65
2022/12/22 06:23:27;;;;;;;3.47;1.83;;;9.70;80.60;;;;;;5042630;28;20036;-66
2022/12/22 06:25:55;;;;;;;3.00;1.70;;;9.80;80.50;;;;;;5046450;28;20411;-66
2022/12/22 06:28:20;;;;;;;4.70;1.80;;;9.80;80.40;;;;;;5047353;28;20088;-66
2022/12/22 06:30:47;;;;;;;2.22;1.50;;;9.80;80.10;;;;;;5046496;28;20060;-66
2022/12/22 06:33:13;;;;;;;2.20;1.70;;;9.80;80.00;;;;;;5052851;28;20510;-66
2022/12/22 06:35:38;;;;;;;3.67;1.95;;;9.80;79.90;;;;;;5048860;28;20057;-65
2022/12/22 06:38:04;;;;;;;7.78;2.03;;;9.90;79.90;;;;;;5045840;28;20048;-65
2022/12/22 06:40:29;;;;;;;3.05;2.10;;;9.90;79.80;;;;;;5051034;28;20030;-66
2022/12/22 06:43:07;;;;;;;2.25;1.85;;;9.90;79.70;;;;;;5055637;28;20037;-66
2022/12/22 06:45:33;;;;;;;2.97;1.75;;;9.90;80.20;;;;;;5042283;28;20029;-66
2022/12/22 06:47:59;;;;;;;3.03;2.00;;;9.90;79.20;;;;;;5042369;28;20052;-66
2022/12/22 06:50:24;;;;;;;4.13;1.90;;;9.80;79.00;;;;;;5042029;28;20053;-66
2022/12/22 06:52:50;;;;;;;3.47;1.63;;;9.80;78.90;;;;;;5043616;28;20045;-66
2022/12/22 06:55:16;;;;;;;5.22;1.63;;;9.80;78.90;;;;;;5040438;28;21087;-66
2022/12/22 06:57:41;;;;;;;3.15;1.98;;;9.70;78.80;;;;;;5049940;28;20037;-66
2022/12/22 07:00:09;;;;;;;4.47;2.63;;;9.70;78.70;;;;;;5044050;28;20056;-66
2022/12/22 07:02:34;;;;;;;2.92;2.08;;;9.70;78.70;;;;;;5049260;28;20025;-66
2022/12/22 07:05:00;;;;;;;3.25;1.85;;;9.60;78.70;;;;;;5040518;28;20013;-66
2022/12/22 07:07:25;;;;;;;3.17;1.80;;;9.60;78.90;;;;;;5047544;28;20067;-66
2022/12/22 07:09:51;;;;;;;3.05;1.90;;;9.60;79.00;;;;;;5044626;28;20059;-66
2022/12/22 07:12:17;;;;;;;4.82;2.10;;;9.60;79.00;;;;;;5046909;28;20064;-65
2022/12/22 07:14:42;;;;;;;3.83;2.03;;;9.60;79.00;;;;;;5046019;28;20076;-66
2022/12/22 07:17:08;;;;;;;3.30;1.98;;;9.60;79.00;;;;;;5050479;28;20029;-65
2022/12/22 07:19:34;;;;;;;4.72;2.08;;;9.50;79.00;;;;;;5049610;28;20030;-66
2022/12/22 07:22:00;;;;;;;4.25;2.00;;;9.50;79.00;;;;;;5042789;28;20067;-65
2022/12/22 07:24:26;;;;;;;6.57;2.08;;;9.50;78.90;;;;;;5044861;28;20030;-65
2022/12/22 07:26:52;;;;;;;4.18;2.25;;;9.50;79.00;;;;;;5042078;28;20028;-66
2022/12/22 07:29:17;;;;;;;4.63;2.47;;;9.50;79.20;;;;;;5044041;28;20447;-65
2022/12/22 07:31:43;;;;;;;6.78;3.45;;;9.40;79.10;;;;;;5048053;28;20033;-65
2022/12/22 07:34:08;;;;;;;8.85;3.38;;;9.50;79.10;;;;;;5042737;28;20029;-65
2022/12/22 07:36:34;;;;;;;9.98;3.15;;;9.40;79.10;;;;;;5039272;28;20504;-66
2022/12/22 07:39:00;;;;;;;3.33;2.25;;;9.40;79.00;;;;;;5044511;28;20048;-65
2022/12/22 07:44:10;;;;;;;7.53;3.38;;;9.40;79.00;;;;;;5041335;28;20040;-65
2022/12/22 07:46:37;;;;;;;11.52;4.75;;;9.40;79.00;;;;;;5044250;28;20037;-65
2022/12/22 07:51:51;;;;;;;12.25;3.42;;;9.40;79.00;;;;;;5040447;28;20124;-65
2022/12/22 07:54:17;;;;;;;9.02;3.70;;;9.40;79.00;;;;;;5048188;28;20036;-65
2022/12/22 07:56:44;;;;;;;8.93;3.75;;;9.40;79.00;;;;;;5050471;28;20048;-65
2022/12/22 07:59:11;;;;;;;11.43;3.90;;;9.40;79.00;;;;;;5045259;28;20026;-65
2022/12/22 08:01:37;;;;;;;6.75;2.90;;;9.40;79.10;;;;;;5047097;28;20036;-65
2022/12/22 08:04:03;;;;;;;5.85;2.90;;;9.40;79.10;;;;;;5046660;28;20017;-66
2022/12/22 08:06:31;;;;;;;5.68;2.47;;;9.40;79.30;;;;;;5060039;28;20514;-66
2022/12/22 08:08:56;;;;;;;12.18;3.92;;;9.40;79.40;;;;;;5049380;28;20029;-66
2022/12/22 08:11:22;;;;;;;8.55;3.80;;;9.40;79.50;;;;;;5047435;28;20056;-66
2022/12/22 08:13:48;;;;;;;6.32;2.80;;;9.50;79.60;;;;;;5038990;28;20074;-66
2022/12/22 08:16:14;;;;;;;4.47;2.03;;;9.60;79.50;;;;;;5048459;28;20026;-65
2022/12/22 08:18:40;;;;;;;5.32;2.08;;;9.60;79.60;;;;;;5035825;28;20117;-66
2022/12/22 08:21:07;;;;;;;4.60;1.83;;;9.60;79.70;;;;;;5048572;28;20107;-66
2022/12/22 08:23:34;;;;;;;6.53;2.08;;;9.70;79.90;;;;;;5039376;28;20050;-66
2022/12/22 08:26:14;;;;;;;7.68;1.88;;;9.70;80.00;;;;;;5045315;28;20067;-65
2022/12/22 08:28:54;;;;;;;7.07;1.70;;;9.80;80.10;;;;;;5044867;28;20041;-66
2022/12/22 08:31:21;;;;;;;6.30;1.90;;;9.90;80.00;;;;;;5036358;28;20026;-66
2022/12/22 08:33:47;;;;;;;5.03;1.33;;;10.00;79.80;;;;;;5038703;28;20027;-66
2022/12/22 08:36:13;;;;;;;5.32;2.08;;;10.10;79.50;;;;;;5048338;28;20107;-66
2022/12/22 08:38:41;;;;;;;4.43;1.63;;;10.10;79.30;;;;;;5042460;28;20029;-66
2022/12/22 08:41:09;;;;;;;4.38;1.55;;;10.10;79.10;;;;;;5051152;28;20032;-66
2022/12/22 08:43:35;;;;;;;3.97;1.80;;;10.20;79.00;;;;;;5040074;28;20033;-65
2022/12/22 08:46:01;;;;;;;8.77;1.80;;;10.20;78.90;;;;;;5040666;28;20030;-65
2022/12/22 08:48:26;;;;;;;6.25;1.55;;;10.30;78.80;;;;;;5042968;28;20013;-65
2022/12/22 08:50:52;;;;;;;4.35;1.90;;;10.30;78.70;;;;;;5047264;28;20136;-65
2022/12/22 08:53:17;;;;;;;6.15;1.75;;;10.30;78.60;;;;;;5041038;28;20030;-64
2022/12/22 08:55:51;;;;;;;7.85;1.75;;;10.30;78.40;;;;;;5036885;28;20025;-65
2022/12/22 08:58:17;;;;;;;8.10;1.48;;;10.30;78.30;;;;;;5036883;28;20037;-66
2022/12/22 09:00:43;;;;;;;7.72;1.67;;;10.30;78.30;;;;;;5038963;28;20030;-66
2022/12/22 09:03:09;;;;;;;3.95;1.42;;;10.30;78.10;;;;;;5046131;28;20030;-67
2022/12/22 09:05:37;;;;;;;5.50;1.50;;;10.30;78.10;;;;;;5045945;28;20028;-66
2022/12/22 09:08:03;;;;;;;4.85;1.60;;;10.40;78.10;;;;;;5041977;28;20021;-64
2022/12/22 09:10:29;;;;;;;4.25;1.33;;;10.40;78.10;;;;;;5030212;28;20034;-65
2022/12/22 09:12:55;;;;;;;7.28;1.88;;;10.50;78.10;;;;;;5034507;28;20057;-65
2022/12/22 09:15:20;;;;;;;6.85;1.35;;;10.50;78.00;;;;;;5046719;28;20044;-65
2022/12/22 09:17:47;;;;;;;4.60;1.33;;;10.50;77.80;;;;;;5039845;28;20046;-65
2022/12/22 09:20:13;;;;;;;2.92;1.10;;;10.50;77.70;;;;;;5035552;28;20040;-66
2022/12/22 09:22:39;;;;;;;2.65;1.27;;;10.60;77.40;;;;;;5037976;28;20034;-65
2022/12/22 09:25:05;;;;;;;4.65;1.30;;;10.60;77.20;;;;;;5043844;28;20037;-65
2022/12/22 09:27:31;;;;;;;2.90;1.10;;;10.70;77.10;;;;;;5040853;28;20064;-65
2022/12/22 09:29:56;;;;;;;6.22;1.02;;;10.70;76.90;;;;;;5033261;28;20026;-65
2022/12/22 09:32:22;;;;;;;6.75;1.58;;;10.70;76.70;;;;;;5037871;28;20175;-66
2022/12/22 09:34:47;;;;;;;2.22;1.08;;;10.70;76.50;;;;;;5032143;28;20116;-66
2022/12/22 09:37:17;;;;;;;4.93;1.27;;;10.70;76.30;;;;;;5039381;28;20043;-65
2022/12/22 09:39:42;;;;;;;2.28;0.90;;;10.70;76.20;;;;;;5035825;28;20385;-65
2022/12/22 09:42:19;;;;;;;5.85;1.10;;;10.70;76.10;;;;;;5027850;28;20035;-67
2022/12/22 09:44:49;;;;;;;3.75;1.20;;;10.70;75.90;;;;;;5043614;28;20037;-66
2022/12/22 09:47:36;;;;;;;5.57;1.35;;;10.70;76.10;;;;;;5037649;28;20033;-65
2022/12/22 09:50:07;;;;;;;4.40;1.08;;;10.70;76.20;;;;;;5046339;28;20055;-66
2022/12/22 09:52:33;;;;;;;7.47;1.73;;;10.70;76.70;;;;;;5042924;28;20021;-66
2022/12/22 09:54:59;;;;;;;5.95;1.30;;;10.80;77.00;;;;;;5045453;28;20492;-66
2022/12/22 09:57:30;;;;;;;4.75;1.25;;;10.80;77.30;;;;;;5031323;28;20036;-66
2022/12/22 10:00:14;;;;;;;3.70;1.60;;;11.00;77.60;;;;;;5039411;28;20032;-65
2022/12/22 10:03:00;;;;;;;5.50;1.55;;;11.10;77.30;;;;;;5035867;28;20033;-66
2022/12/22 10:05:53;;;;;;;4.78;1.27;;;11.30;77.40;;;;;;5040370;28;20067;-66
2022/12/22 10:08:30;;;;;;;5.45;1.38;;;11.40;77.20;;;;;;5041429;28;20029;-65
2022/12/22 10:10:56;;;;;;;6.07;1.48;;;11.60;77.00;;;;;;5046512;28;20055;-66
2022/12/22 10:13:22;;;;;;;8.88;1.70;;;11.70;76.50;;;;;;5037323;28;20033;-65
2022/12/22 10:15:48;;;;;;;9.15;1.55;;;11.70;76.00;;;;;;5039518;28;20022;-65
2022/12/22 10:18:17;;;;;;;6.00;1.58;;;11.70;75.70;;;;;;5034346;28;20077;-64
2022/12/22 10:21:10;;;;;;;6.85;1.80;;;11.70;75.60;;;;;;5034893;28;20033;-64
2022/12/22 10:23:47;;;;;;;7.72;1.67;;;11.70;75.60;;;;;;5042570;28;20047;-65
2022/12/22 10:26:18;;;;;;;9.60;1.83;;;11.60;75.50;;;;;;5044769;28;20057;-64
2022/12/22 10:28:52;;;;;;;5.63;1.55;;;11.50;75.60;;;;;;5045844;28;20021;-66
2022/12/22 10:31:29;;;;;;;6.22;2.25;;;11.50;75.80;;;;;;5042161;28;20025;-65
2022/12/22 10:34:12;;;;;;;8.60;2.40;;;11.40;76.00;;;;;;5044991;28;20117;-65
2022/12/22 10:36:39;;;;;;;9.35;1.60;;;11.30;76.00;;;;;;5033191;28;20045;-65
2022/12/22 10:39:08;;;;;;;11.00;2.40;;;11.30;76.20;;;;;;5054290;28;20037;-65
2022/12/22 10:41:44;;;;;;;6.00;1.77;;;11.30;76.40;;;;;;5049524;28;20035;-65
2022/12/22 10:44:23;;;;;;;6.57;1.73;;;11.20;76.70;;;;;;5035589;28;20048;-65
2022/12/22 10:47:00;;;;;;;9.73;1.90;;;11.10;76.90;;;;;;5042658;28;20052;-65
2022/12/22 10:49:39;;;;;;;8.68;2.58;;;11.10;76.90;;;;;;5049626;28;20384;-65
2022/12/22 10:52:22;;;;;;;11.05;3.58;;;11.10;77.20;;;;;;5039865;28;20049;-65
2022/12/22 10:54:48;;;;;;;9.05;3.28;;;11.00;77.30;;;;;;5040657;28;20029;-66
2022/12/22 10:57:14;;;;;;;11.10;3.10;;;11.00;77.20;;;;;;5042561;28;20074;-65
2022/12/22 10:59:46;;;;;;;10.13;2.75;;;11.00;77.40;;;;;;5061041;28;20864;-65
2022/12/22 11:02:23;;;;;;;8.85;2.50;;;11.00;77.50;;;;;;5047639;28;20033;-65
2022/12/22 11:04:50;;;;;;;9.00;2.75;;;11.00;77.60;;;;;;5042797;28;20032;-66
2022/12/22 11:07:16;;;;;;;6.78;2.40;;;11.00;77.60;;;;;;5047500;28;20033;-64
2022/12/22 11:09:42;;;;;;;10.70;3.05;;;11.00;77.70;;;;;;5046737;28;20049;-66
2022/12/22 11:12:20;;;;;;;6.47;2.40;;;10.90;77.70;;;;;;5052876;28;20021;-65
2022/12/22 11:15:08;;;;;;;9.13;2.55;;;11.00;78.00;;;;;;5048956;28;20111;-65
2022/12/22 11:17:49;;;;;;;8.77;2.25;;;10.90;78.10;;;;;;5009804;28;20721;-65
2022/12/22 11:21:02;;;;;;;6.35;2.00;;;10.90;77.80;;;;;;5009005;28;20050;-65
2022/12/22 11:23:49;;;;;;;9.40;2.20;;;11.00;78.10;;;;;;4964750;28;20036;-66
2022/12/22 11:26:36;;;;;;;7.20;2.10;;;11.00;78.20;;;;;;4965530;28;20039;-65
2022/12/22 11:29:11;;;;;;;7.00;2.20;;;11.00;78.20;;;;;;4965599;28;20052;-65
2022/12/22 11:31:45;;;;;;;9.25;2.53;;;11.00;78.10;;;;;;4970802;28;20098;-66
2022/12/22 11:34:17;;;;;;;;;;;11.00;78.00;;;;;;4966838;28;20071;-65
2022/12/22 11:37:01;;;;;;;9.90;2.35;;;11.00;78.20;;;;;;4967722;28;19910;-65
2022/12/22 11:39:30;;;;;;;12.55;3.45;;;11.00;77.90;;;;;;4954443;28;20071;-65
2022/12/22 11:42:35;;;;;;;15.48;3.88;;;11.00;77.80;;;;;;4958009;28;20071;-65
2022/12/22 11:45:19;;;;;;;11.55;5.70;;;11.00;78.00;;;;;;4958253;28;20023;-66
2022/12/22 11:47:59;;;;;;;12.27;4.80;;;11.00;77.80;;;;;;4969896;28;20038;-64
2022/12/22 11:50:28;;;;;;;13.07;5.10;;;11.00;77.90;;;;;;4961320;28;20055;-65
2022/12/22 11:53:18;;;;;;;19.25;4.35;;;11.00;77.90;;;;;;4968769;28;20061;-65
2022/12/22 11:55:58;;;;;;;11.73;3.78;;;11.00;78.20;;;;;;5052394;28;20091;-65
2022/12/22 11:58:58;;;;;;;11.95;3.50;;;11.00;78.10;;;;;;5047240;28;20041;-65
2022/12/22 12:01:36;;;;;;;11.05;2.85;;;11.00;78.10;;;;;;5040076;28;20377;-65
2022/12/22 12:04:32;;;;;;;8.73;2.92;;;10.90;78.10;;;;;;5052889;28;20395;-65
2022/12/22 12:07:06;;;;;;;10.85;2.67;;;10.90;78.40;;;;;;5045093;28;20361;-65
2022/12/22 12:09:41;;;;;;;;;;;11.00;78.30;;;;;;5040977;28;20072;-65
2022/12/22 12:12:18;;;;;;;9.30;2.33;;;11.00;78.40;;;;;;5057123;28;19917;-65
2022/12/22 12:15:07;;;;;;;8.88;2.75;;;11.00;78.00;;;;;;5037800;28;20021;-64
2022/12/22 12:17:43;;;;;;;7.47;2.70;;;11.00;78.10;;;;;;5049994;28;20040;-64
2022/12/22 12:20:14;;;;;;;7.97;3.15;;;11.00;78.00;;;;;;5001189;28;20029;-65
2022/12/22 12:22:58;;;;;;;9.25;3.28;;;11.00;78.20;;;;;;5044287;28;20457;-64
2022/12/22 12:25:35;;;;;;;10.63;2.45;;;11.00;78.40;;;;;;5050651;28;20036;-65
2022/12/22 12:28:36;;;;;;;16.25;7.28;;;10.90;78.30;;;;;;5052549;28;20037;-65
2022/12/22 12:31:03;;;;;;;9.55;2.85;;;10.90;78.30;;;;;;5031851;28;20049;-64
2022/12/22 12:33:37;;;;;;;10.45;2.67;;;10.90;78.00;;;;;;5045267;28;20017;-64
2022/12/22 12:36:26;;;;;;;7.00;2.22;;;10.90;78.20;;;;;;5051282;28;20021;-65
2022/12/22 12:39:25;;;;;;;8.05;2.15;;;11.00;78.60;;;;;;5033111;28;20049;-64
2022/12/22 12:42:08;;;;;;;10.88;2.00;;;10.90;78.30;;;;;;5017212;28;20123;-64
2022/12/22 12:44:36;;;;;;;11.73;2.75;;;11.00;78.40;;;;;;5020477;28;20030;-64
2022/12/22 12:47:04;;;;;;;7.43;2.75;;;11.00;78.30;;;;;;5022030;28;20543;-65
2022/12/22 12:49:32;;;;;;;15.82;5.30;;;10.90;78.30;;;;;;5020227;28;20093;-64
2022/12/22 12:52:02;;;;;;;14.32;4.55;;;11.00;78.40;;;;;;5011857;28;20042;-65
2022/12/22 12:54:28;;;;;;;14.75;6.75;;;10.90;78.40;;;;;;5010728;28;20044;-65
2022/12/22 12:56:58;;;;;;;16.42;10.30;;;11.00;78.40;;;;;;5023117;28;20064;-65
2022/12/22 12:59:45;;;;;;;14.32;5.65;;;11.00;78.40;;;;;;5017248;28;20046;-65
2022/12/22 13:02:26;;;;;;;8.20;3.20;;;11.00;78.60;;;;;;5024541;28;20030;-64
2022/12/22 13:05:07;;;;;;;13.55;4.15;;;11.00;78.50;;;;;;5019920;28;20046;-64
2022/12/22 13:08:06;;;;;;;11.68;4.60;;;11.00;78.50;;;;;;5029623;28;20038;-65
2022/12/22 13:10:39;;;;;;;6.82;3.92;;;11.00;78.40;;;;;;5022234;28;20034;-64
2022/12/22 13:13:05;;;;;;;7.88;3.80;;;11.00;78.20;;;;;;5022482;28;20033;-65
2022/12/22 13:15:35;;;;;;;12.75;4.05;;;11.00;78.30;;;;;;5019513;28;20026;-65
2022/12/22 13:18:14;;;;;;;6.88;3.83;;;11.00;79.00;;;;;;5018299;28;20058;-65
2022/12/22 13:20:41;;;;;;;13.82;4.40;;;11.00;78.40;;;;;;5046320;28;20013;-65
2022/12/22 13:23:13;;;;;;;14.15;4.07;;;11.00;78.40;;;;;;5046942;28;20503;-65
2022/12/22 13:25:55;;;;;;;11.70;4.35;;;11.00;79.20;;;;;;5051508;28;20035;-65
2022/12/22 13:28:22;;;;;;;9.02;3.95;;;11.00;78.40;;;;;;5036558;28;20037;-65
2022/12/22 13:30:52;;;;;;;7.60;2.88;;;11.00;78.40;;;;;;5044184;28;20037;-64
2022/12/22 13:33:21;;;;;;;6.35;1.90;;;11.00;78.40;;;;;;5036046;28;20033;-65
2022/12/22 13:35:48;;;;;;;6.47;1.52;;;11.00;78.40;;;;;;5043580;28;20024;-65
2022/12/22 13:38:31;;;;;;;7.47;2.70;;;11.00;78.50;;;;;;5045800;28;20068;-65
2022/12/22 13:41:01;;;;;;;5.20;1.73;;;11.10;77.50;;;;;;5041536;28;20041;-65
2022/12/22 13:43:28;;;;;;;5.45;1.80;;;11.20;78.00;;;;;;5036131;28;20026;-65
2022/12/22 13:45:56;;;;;;;10.40;3.28;;;11.30;77.90;;;;;;5038315;28;20026;-65
2022/12/22 13:48:44;;;;;;;7.25;1.90;;;11.40;77.60;;;;;;5044770;28;20081;-63
2022/12/22 13:51:19;;;;;;;5.78;1.40;;;11.40;77.00;;;;;;5038665;28;20064;-65
2022/12/22 13:53:55;;;;;;;4.57;1.20;;;11.50;76.80;;;;;;5040015;28;20057;-65
2022/12/22 13:56:45;;;;;;;2.75;1.67;;;11.60;76.70;;;;;;5040567;28;20089;-63
2022/12/22 13:59:28;;;;;;;8.38;1.77;;;11.60;76.40;;;;;;5045629;28;20128;-65
2022/12/22 14:01:59;;;;;;;7.15;1.77;;;11.70;75.90;;;;;;5036684;28;20030;-64
2022/12/22 14:04:27;;;;;;;5.45;1.23;;;11.80;76.10;;;;;;5040574;28;20025;-64
2022/12/22 14:06:53;;;;;;;6.57;1.33;;;11.80;76.00;;;;;;5043977;28;20025;-64
2022/12/22 14:09:24;;;;;;;8.40;3.00;;;11.90;75.80;;;;;;5052125;28;20026;-64
2022/12/22 14:12:11;;;;;;;3.80;1.50;;;11.90;75.50;;;;;;5050457;28;20030;-64
2022/12/22 14:14:40;;;;;;;5.90;1.50;;;11.90;75.20;;;;;;5050681;28;20033;-64
2022/12/22 14:17:25;;;;;;;5.35;1.48;;;12.00;74.80;;;;;;5051260;28;20052;-65
2022/12/22 14:19:54;;;;;;;6.38;1.63;;;12.00;74.60;;;;;;5057382;28;20058;-65
2022/12/22 14:22:35;;;;;;;6.75;1.67;;;12.00;75.00;;;;;;5047492;28;20108;-64
2022/12/22 14:25:15;;;;;;;4.57;1.33;;;12.00;74.70;;;;;;5040155;28;20097;-66
2022/12/22 14:27:51;;;;;;;7.70;1.65;;;12.10;74.50;;;;;;5045382;28;20077;-65
2022/12/22 14:30:27;;;;;;;6.75;1.55;;;12.10;74.10;;;;;;5045546;28;20090;-65
2022/12/22 14:32:55;;;;;;;9.43;3.15;;;12.20;74.00;;;;;;5049225;28;20047;-64
2022/12/22 14:35:20;;;;;;;8.48;2.00;;;12.20;73.90;;;;;;5044468;28;20179;-64
2022/12/22 14:37:52;;;;;;;3.92;1.52;;;12.20;74.00;;;;;;5041304;28;20516;-64
2022/12/22 14:40:37;;;;;;;8.00;3.17;;;12.30;73.80;;;;;;5046537;28;20500;-64
2022/12/22 14:43:25;;;;;;;11.23;4.72;;;12.20;73.60;;;;;;5039704;28;20022;-65
2022/12/22 14:46:01;;;;;;;6.78;2.10;;;12.30;73.70;;;;;;5046402;28;20037;-64
2022/12/22 14:48:35;;;;;;;7.18;1.75;;;12.20;73.20;;;;;;5051891;28;20021;-64
2022/12/22 14:51:02;;;;;;;8.05;3.00;;;12.30;73.20;;;;;;5049221;28;20075;-64
2022/12/22 14:53:53;;;;;;;11.27;4.03;;;12.20;73.40;;;;;;5047484;28;20105;-64
2022/12/22 14:56:21;;;;;;;6.97;2.40;;;12.30;72.40;;;;;;5045411;28;20090;-64
2022/12/22 14:58:48;;;;;;;5.00;2.05;;;12.30;73.00;;;;;;5053612;28;20029;-65
2022/12/22 15:01:19;;;;;;;7.47;2.78;;;12.30;73.20;;;;;;5051351;28;20033;-65
2022/12/22 15:04:05;;;;;;;5.28;1.52;;;12.30;73.20;;;;;;5047212;28;20579;-64
2022/12/22 15:06:35;;;;;;;6.72;1.38;;;12.30;72.60;;;;;;5049270;28;20022;-64
2022/12/22 15:09:07;;;;;;;5.25;1.40;;;12.30;73.00;;;;;;5043356;28;20033;-64
2022/12/22 15:11:36;;;;;;;4.95;1.48;;;12.30;73.00;;;;;;5034425;28;20029;-65
2022/12/22 15:14:03;;;;;;;4.45;1.90;;;12.30;72.80;;;;;;5045326;28;20022;-64
2022/12/22 15:16:30;;;;;;;9.18;2.80;;;12.30;72.80;;;;;;5050293;28;20026;-65
2022/12/22 15:18:56;;;;;;;7.45;2.20;;;12.30;72.50;;;;;;5044023;28;20056;-65
2022/12/22 15:21:22;;;;;;;7.93;1.73;;;12.30;72.30;;;;;;5035824;28;20036;-64
2022/12/22 15:23:48;;;;;;;10.20;2.10;;;12.30;72.50;;;;;;5046420;28;20025;-65
2022/12/22 15:26:13;;;;;;;6.40;1.88;;;12.30;72.30;;;;;;5046424;28;20038;-65
2022/12/22 15:28:39;;;;;;;8.18;1.90;;;12.30;72.30;;;;;;5039930;28;20053;-64
2022/12/22 15:31:16;;;;;;;11.07;2.17;;;12.30;72.40;;;;;;5044774;28;20031;-65
2022/12/22 15:33:42;;;;;;;7.97;1.95;;;12.30;72.10;;;;;;5033428;28;20032;-64
2022/12/22 15:36:12;;;;;;;6.50;2.00;;;12.30;72.30;;;;;;5041746;28;20029;-65
2022/12/22 15:38:39;;;;;;;5.72;2.00;;;12.30;71.80;;;;;;5042838;28;20413;-64
2022/12/22 15:41:06;;;;;;;8.60;2.00;;;12.30;72.00;;;;;;5044183;28;20032;-64
2022/12/22 15:43:31;;;;;;;7.65;2.35;;;12.30;72.10;;;;;;5053217;28;20048;-65
2022/12/22 15:45:57;;;;;;;7.22;2.33;;;12.30;72.00;;;;;;5043700;28;20033;-64
2022/12/22 15:48:29;;;;;;;8.70;2.90;;;12.20;71.90;;;;;;5048359;28;20068;-65
2022/12/22 15:50:56;;;;;;;10.05;2.47;;;12.20;71.90;;;;;;5049626;28;20038;-65
2022/12/22 15:53:22;;;;;;;7.93;2.50;;;12.20;71.90;;;;;;5051917;28;20033;-65
2022/12/22 15:55:50;;;;;;;15.02;3.35;;;12.20;71.70;;;;;;5048570;28;20096;-65
2022/12/22 15:58:18;;;;;;;7.45;2.50;;;12.20;71.80;;;;;;5055994;28;20052;-64
2022/12/22 16:00:44;;;;;;;9.85;2.55;;;12.10;71.60;;;;;;5051386;28;20032;-65
2022/12/22 16:03:11;;;;;;;10.82;2.80;;;12.20;71.70;;;;;;5045733;28;20025;-65
2022/12/22 16:05:38;;;;;;;8.88;2.60;;;12.20;71.60;;;;;;5054937;28;20480;-65
2022/12/22 16:08:11;;;;;;;8.50;2.35;;;12.20;71.30;;;;;;5055029;28;20032;-64
2022/12/22 16:10:37;;;;;;;7.88;2.22;;;12.10;71.40;;;;;;5046969;28;20025;-65
2022/12/22 16:13:03;;;;;;;7.18;2.20;;;12.20;71.40;;;;;;5050224;28;20028;-64
2022/12/22 16:15:31;;;;;;;7.35;2.25;;;12.20;71.30;;;;;;5038878;28;20077;-64
2022/12/22 16:17:58;;;;;;;9.85;2.95;;;12.20;71.20;;;;;;5048013;28;20033;-64
2022/12/22 16:20:27;;;;;;;9.93;2.30;;;12.20;71.00;;;;;;5033302;28;20492;-65
2022/12/22 16:22:53;;;;;;;12.45;2.55;;;12.20;71.10;;;;;;5036447;28;20025;-65
2022/12/22 16:25:26;;;;;;;9.38;2.80;;;12.30;70.90;;;;;;5041165;28;20127;-65
2022/12/22 16:27:53;;;;;;;9.82;2.80;;;12.30;70.40;;;;;;5037336;28;20032;-64
2022/12/22 16:30:21;;;;;;;13.27;2.80;;;12.30;70.80;;;;;;5041789;28;20040;-65
2022/12/22 16:32:48;;;;;;;8.55;2.58;;;12.30;70.60;;;;;;5054345;28;20022;-66
2022/12/22 16:35:19;;;;;;;7.40;2.33;;;12.30;70.30;;;;;;5048099;28;20017;-66
2022/12/22 16:37:47;;;;;;;8.55;2.20;;;12.30;70.40;;;;;;5043188;28;20044;-66
2022/12/22 16:40:14;;;;;;;10.18;2.47;;;12.30;70.50;;;;;;5042296;28;20094;-66
2022/12/22 16:42:49;;;;;;;8.00;2.65;;;12.30;70.40;;;;;;5046176;28;20018;-66
2022/12/22 16:45:20;;;;;;;14.10;3.03;;;12.30;70.40;;;;;;5050608;28;20060;-66